Terminal Aerodrome Forecast
Issued by NWS

Home | Current Version | Previous Version | Text Only | Print | Product List | Glossary On
Versions: 1 2 3 4 5 6 7 8 9 10 11 12 13 14 15
000
FTUS42 TJSJ 202320
TAFKPK
TAF
TKPK 202320Z 2100/2124 06011KT P6SM FEW018
     FM211300 10012KT P6SM SCT025 SCT070
     FM212300 07007KT P6SM FEW025
      AMD NOT SKED TIL 211100=

USA.gov is the U.S. government's official web portal to all federal, state and local government web resources and services.